Time;durP1;ratioP1;P1;durP2;ratioP2;P2;SDS_P1;SDS_P2;PMS_P1;PMS_P2;Temp;Humidity;BMP_temperature;BMP_pressure;BME280_temperature;BME280_humidity;BME280_pressure;Samples;Min_cycle;Max_cycle;Signal;HPM_P1;HPM_P2
2021/04/08 00:02:12;;;;;;;8.25;5.32;;;10.80;52.50;;;;;;4329005;33;20063;-37
2021/04/08 00:04:39;;;;;;;8.55;5.43;;;10.80;52.50;;;;;;4328866;33;20604;-37
2021/04/08 00:07:05;;;;;;;4.95;2.83;;;10.80;52.40;;;;;;4329300;33;20087;-36
2021/04/08 00:09:32;;;;;;;13.68;6.75;;;10.80;52.40;;;;;;4329061;33;20070;-36
2021/04/08 00:11:58;;;;;;;12.13;7.10;;;10.90;52.30;;;;;;4329035;33;20168;-38
2021/04/08 00:14:26;;;;;;;12.15;8.30;;;10.90;52.20;;;;;;4342992;33;20561;-38
2021/04/08 00:16:52;;;;;;;10.70;6.60;;;10.90;52.10;;;;;;4345173;33;20180;-38
2021/04/08 00:19:19;;;;;;;12.05;7.93;;;10.90;52.00;;;;;;4346422;33;20138;-37
2021/04/08 00:21:45;;;;;;;7.00;5.22;;;10.90;51.90;;;;;;4346312;32;20612;-36
2021/04/08 00:24:12;;;;;;;8.80;6.68;;;10.90;52.00;;;;;;4344585;33;20059;-38
2021/04/08 00:26:38;;;;;;;7.37;3.12;;;10.90;52.10;;;;;;4346531;32;20071;-38
2021/04/08 00:29:05;;;;;;;13.60;6.90;;;10.80;52.10;;;;;;4346435;32;20075;-38
2021/04/08 00:31:31;;;;;;;12.48;6.80;;;10.90;52.30;;;;;;4344894;33;20078;-37
2021/04/08 00:33:58;;;;;;;11.82;6.78;;;10.90;52.40;;;;;;4345787;33;20150;-36
2021/04/08 00:36:24;;;;;;;6.05;3.83;;;10.90;52.50;;;;;;4344302;33;20051;-37
2021/04/08 00:38:51;;;;;;;11.23;5.62;;;10.90;52.30;;;;;;4345527;32;20138;-37
2021/04/08 00:41:17;;;;;;;6.87;4.12;;;11.00;52.30;;;;;;4344549;32;20133;-36
2021/04/08 00:43:43;;;;;;;8.55;5.55;;;11.00;52.20;;;;;;4346131;32;20081;-36
2021/04/08 00:46:10;;;;;;;10.63;8.23;;;11.00;52.10;;;;;;4346254;32;21044;-36
2021/04/08 00:48:38;;;;;;;13.18;7.82;;;11.10;52.10;;;;;;4346163;32;20143;-38
2021/04/08 00:51:04;;;;;;;13.23;6.60;;;11.10;52.10;;;;;;4346346;32;20059;-37
2021/04/08 00:53:33;;;;;;;13.93;7.85;;;11.10;51.90;;;;;;4346284;32;20087;-37
2021/04/08 00:55:59;;;;;;;7.03;4.28;;;11.20;51.70;;;;;;4344447;33;20452;-37
2021/04/08 00:58:26;;;;;;;11.98;7.07;;;11.20;51.70;;;;;;4332226;33;20059;-37
2021/04/08 01:00:52;;;;;;;7.60;5.78;;;11.20;51.60;;;;;;4344240;33;20526;-37
2021/04/08 01:03:21;;;;;;;7.47;5.53;;;11.30;51.70;;;;;;4344200;33;20117;-36
2021/04/08 01:05:47;;;;;;;12.63;7.10;;;11.40;51.90;;;;;;4344191;33;20520;-38
2021/04/08 01:08:14;;;;;;;5.65;1.83;;;11.40;51.90;;;;;;4346375;32;20058;-37
2021/04/08 01:10:43;;;;;;;11.38;8.82;;;11.50;52.10;;;;;;4345825;32;20070;-36
2021/04/08 01:13:12;;;;;;;13.95;8.13;;;11.50;51.90;;;;;;4344206;33;20106;-37
2021/04/08 01:15:38;;;;;;;11.63;8.05;;;11.50;52.00;;;;;;4345419;32;20071;-37
2021/04/08 01:18:38;;;;;;;11.88;5.43;;;11.40;52.20;;;;;;4345476;32;20067;-34
2021/04/08 01:21:17;;;;;;;11.12;7.28;;;11.40;52.40;;;;;;4343954;33;20174;-33
2021/04/08 01:24:12;;;;;;;7.50;4.97;;;11.50;52.40;;;;;;4343658;33;20090;-33
2021/04/08 01:27:02;;;;;;;10.73;5.78;;;11.50;52.30;;;;;;4345422;32;20062;-33
2021/04/08 01:30:14;;;;;;;7.53;5.20;;;11.40;52.40;;;;;;4345249;32;20063;-34
2021/04/08 01:32:50;;;;;;;9.40;4.60;;;11.40;52.50;;;;;;4343725;33;20082;-34
2021/04/08 01:35:20;;;;;;;11.15;6.43;;;11.40;52.40;;;;;;4317046;33;20059;-34
2021/04/08 01:38:29;;;;;;;8.32;6.37;;;11.40;52.30;;;;;;4316371;33;20099;-35
2021/04/08 01:40:55;;;;;;;4.43;2.78;;;11.40;52.40;;;;;;4275655;33;20083;-35
2021/04/08 01:43:28;;;;;;;6.45;3.20;;;11.50;52.40;;;;;;4261143;33;20155;-36
2021/04/08 01:45:57;;;;;;;6.75;4.75;;;11.50;52.20;;;;;;4284503;33;20625;-36
2021/04/08 01:48:23;;;;;;;5.45;2.12;;;11.60;51.90;;;;;;4260590;33;20068;-37
2021/04/08 01:50:54;;;;;;;6.22;4.12;;;11.60;51.90;;;;;;4272418;33;20107;-35
2021/04/08 01:53:21;;;;;;;9.45;5.90;;;11.70;51.70;;;;;;4249340;33;20106;-36
2021/04/08 01:55:49;;;;;;;8.00;5.32;;;11.70;51.60;;;;;;4249269;33;20079;-37
2021/04/08 01:58:15;;;;;;;7.47;5.82;;;11.70;51.30;;;;;;4259373;33;20088;-36
2021/04/08 02:00:42;;;;;;;11.00;8.95;;;11.80;51.40;;;;;;4259737;33;20124;-36
2021/04/08 02:03:08;;;;;;;9.23;5.90;;;11.80;50.90;;;;;;4271654;33;20148;-35
2021/04/08 02:05:35;;;;;;;10.23;5.80;;;11.80;51.20;;;;;;4271953;33;20508;-37
2021/04/08 02:08:01;;;;;;;7.80;4.57;;;11.90;51.20;;;;;;4260419;33;20706;-38
2021/04/08 02:10:29;;;;;;;12.60;7.70;;;11.90;51.00;;;;;;4272459;33;20068;-37
2021/04/08 02:12:56;;;;;;;5.60;4.43;;;11.90;51.00;;;;;;4272047;33;20171;-37
2021/04/08 02:15:23;;;;;;;10.18;7.25;;;11.90;51.00;;;;;;4273373;33;20102;-35
2021/04/08 02:17:59;;;;;;;7.53;3.55;;;11.90;51.00;;;;;;4303615;33;20509;-36
2021/04/08 02:20:29;;;;;;;5.75;3.87;;;11.90;51.30;;;;;;4315368;33;20153;-37
2021/04/08 02:22:59;;;;;;;9.63;5.10;;;11.90;51.60;;;;;;4260114;33;20076;-35
2021/04/08 02:25:30;;;;;;;13.20;7.35;;;11.90;51.80;;;;;;4272063;33;20151;-36
2021/04/08 02:27:56;;;;;;;8.38;4.15;;;11.90;52.10;;;;;;4272419;33;20556;-34
2021/04/08 02:30:25;;;;;;;11.23;7.18;;;11.80;52.30;;;;;;4283268;33;20092;-34
2021/04/08 02:32:52;;;;;;;10.70;7.18;;;11.80;52.40;;;;;;4254669;33;20510;-33
2021/04/08 02:35:18;;;;;;;10.40;6.05;;;11.70;52.40;;;;;;4255833;33;20110;-33
2021/04/08 02:37:46;;;;;;;8.27;5.57;;;11.70;52.60;;;;;;4283395;33;20078;-33
2021/04/08 02:40:16;;;;;;;9.68;5.50;;;11.70;52.50;;;;;;4283541;33;21572;-34
2021/04/08 02:42:42;;;;;;;7.00;5.18;;;11.70;52.60;;;;;;4295682;33;20093;-35
2021/04/08 02:45:10;;;;;;;7.25;5.05;;;11.60;52.40;;;;;;4283404;33;20157;-34
2021/04/08 02:47:37;;;;;;;12.07;8.45;;;11.60;52.50;;;;;;4283143;33;20080;-34
2021/04/08 02:50:06;;;;;;;10.93;8.02;;;11.60;52.40;;;;;;4271488;33;20108;-33
2021/04/08 02:53:09;;;;;;;9.75;6.03;;;11.60;52.40;;;;;;4283421;33;20100;-36
2021/04/08 02:56:03;;;;;;;10.75;9.68;;;11.70;52.30;;;;;;4261363;33;20100;-35
2021/04/08 02:58:30;;;;;;;7.18;4.65;;;11.70;51.60;;;;;;4257967;33;20201;-35
2021/04/08 03:01:02;;;;;;;14.02;7.30;;;11.70;51.90;;;;;;4315637;33;20151;-36
2021/04/08 03:03:34;;;;;;;7.22;4.10;;;11.80;51.70;;;;;;4323012;33;20143;-36
2021/04/08 03:06:04;;;;;;;5.28;3.97;;;11.80;51.50;;;;;;4321644;33;20094;-35
2021/04/08 03:08:31;;;;;;;13.50;5.07;;;11.80;51.40;;;;;;4333924;33;20059;-35
2021/04/08 03:11:04;;;;;;;6.65;5.12;;;11.90;51.40;;;;;;4345938;33;20065;-36
2021/04/08 03:13:35;;;;;;;6.75;3.37;;;11.80;51.30;;;;;;4334312;33;20079;-36
2021/04/08 03:16:07;;;;;;;8.32;4.87;;;11.90;51.40;;;;;;4302878;33;20091;-36
2021/04/08 03:18:34;;;;;;;8.25;6.32;;;11.90;51.30;;;;;;4304600;33;20551;-36
2021/04/08 03:21:01;;;;;;;8.23;6.10;;;11.90;51.30;;;;;;4303668;33;20102;-36
2021/04/08 03:23:27;;;;;;;7.55;5.62;;;11.90;51.10;;;;;;4315985;33;20071;-37
2021/04/08 03:25:54;;;;;;;11.10;6.18;;;11.90;51.10;;;;;;4316126;33;20068;-36
2021/04/08 03:28:20;;;;;;;9.40;6.78;;;12.00;51.20;;;;;;4303621;33;20540;-36
2021/04/08 03:30:47;;;;;;;6.47;4.32;;;12.00;51.00;;;;;;4292354;33;20185;-35
2021/04/08 03:33:15;;;;;;;9.45;6.20;;;12.10;51.10;;;;;;4304367;33;20072;-34
2021/04/08 03:35:48;;;;;;;11.80;5.75;;;12.10;51.40;;;;;;4316583;33;20071;-36
2021/04/08 03:38:18;;;;;;;6.20;5.22;;;12.10;51.20;;;;;;4317398;33;20079;-34
2021/04/08 03:40:47;;;;;;;10.20;6.53;;;12.10;51.30;;;;;;4307268;33;20087;-36
2021/04/08 03:43:14;;;;;;;10.80;8.07;;;12.20;51.30;;;;;;4319189;33;20075;-36
2021/04/08 03:45:41;;;;;;;10.10;5.10;;;12.20;51.30;;;;;;4318299;33;20062;-35
2021/04/08 03:48:09;;;;;;;7.60;5.15;;;12.20;51.90;;;;;;4346817;33;20533;-34
2021/04/08 03:50:37;;;;;;;11.63;9.65;;;12.20;51.10;;;;;;4345428;33;20066;-35
2021/04/08 03:53:04;;;;;;;10.48;9.43;;;12.20;50.60;;;;;;4344749;33;20050;-34
2021/04/08 03:55:31;;;;;;;11.68;8.95;;;12.10;50.90;;;;;;4345185;33;20537;-34
2021/04/08 03:57:58;;;;;;;11.77;9.45;;;12.00;51.10;;;;;;4333553;33;20154;-36
2021/04/08 04:00:25;;;;;;;13.02;8.73;;;12.00;51.10;;;;;;4321072;33;20451;-34
2021/04/08 04:02:52;;;;;;;15.07;8.70;;;12.00;51.10;;;;;;4345027;33;20066;-36
2021/04/08 04:05:18;;;;;;;12.90;8.18;;;12.00;51.20;;;;;;4292157;33;20106;-36
2021/04/08 04:07:51;;;;;;;9.57;8.20;;;12.00;51.10;;;;;;4304432;33;20148;-35
2021/04/08 04:10:21;;;;;;;10.25;7.78;;;12.10;50.70;;;;;;4306311;33;20055;-36
2021/04/08 04:12:51;;;;;;;8.70;6.80;;;12.10;51.00;;;;;;4306982;33;20063;-35
2021/04/08 04:15:18;;;;;;;5.18;3.97;;;12.20;50.70;;;;;;4319488;33;20467;-36
2021/04/08 04:17:45;;;;;;;11.07;8.32;;;12.10;50.50;;;;;;4332241;33;20153;-36
2021/04/08 04:20:12;;;;;;;7.18;5.97;;;12.20;50.30;;;;;;4319268;33;20095;-36
2021/04/08 04:22:42;;;;;;;6.05;3.90;;;12.10;50.40;;;;;;4330913;33;20153;-35
2021/04/08 04:25:10;;;;;;;11.65;8.85;;;12.10;50.40;;;;;;4331164;33;20067;-35
2021/04/08 04:27:37;;;;;;;10.88;7.45;;;12.10;50.50;;;;;;4330978;33;20158;-36
2021/04/08 04:30:08;;;;;;;11.02;7.35;;;12.10;50.40;;;;;;4318892;33;20106;-35
2021/04/08 04:32:34;;;;;;;12.35;9.27;;;12.20;50.40;;;;;;4331688;33;20096;-35
2021/04/08 04:35:01;;;;;;;11.38;7.95;;;12.30;50.30;;;;;;4295762;33;20094;-34
2021/04/08 04:37:28;;;;;;;7.22;4.87;;;12.40;50.10;;;;;;4350005;33;20071;-35
2021/04/08 04:39:54;;;;;;;7.72;5.90;;;12.50;50.20;;;;;;4351491;33;20138;-35
2021/04/08 04:42:21;;;;;;;7.35;5.78;;;12.60;49.90;;;;;;4328733;33;20087;-34
2021/04/08 04:44:47;;;;;;;4.00;2.83;;;12.80;49.40;;;;;;4355025;32;20586;-35
2021/04/08 04:47:13;;;;;;;5.78;3.70;;;12.90;49.10;;;;;;4354955;33;20116;-35
2021/04/08 04:49:40;;;;;;;6.12;4.22;;;13.00;49.00;;;;;;4355565;33;20075;-35
2021/04/08 04:52:06;;;;;;;6.35;4.75;;;13.20;48.80;;;;;;4358007;33;20067;-34
2021/04/08 04:54:33;;;;;;;5.15;3.65;;;13.40;48.60;;;;;;4357853;32;20476;-35
2021/04/08 04:57:00;;;;;;;6.12;4.55;;;13.50;47.70;;;;;;4357993;33;20144;-35
2021/04/08 04:59:26;;;;;;;6.95;6.18;;;13.60;47.50;;;;;;4348802;33;20106;-34
2021/04/08 05:01:53;;;;;;;3.67;2.42;;;13.80;46.70;;;;;;4344477;33;20522;-34
2021/04/08 05:04:19;;;;;;;6.50;4.43;;;14.00;47.00;;;;;;4345232;33;20071;-35
2021/04/08 05:06:45;;;;;;;7.18;5.07;;;14.10;46.30;;;;;;4343708;33;20617;-36
2021/04/08 05:09:12;;;;;;;10.13;5.62;;;14.20;45.80;;;;;;4346994;33;20084;-36
2021/04/08 05:11:38;;;;;;;6.78;6.05;;;14.30;45.50;;;;;;4349121;32;20059;-36
2021/04/08 05:14:05;;;;;;;6.68;4.35;;;14.50;45.40;;;;;;4348559;33;20070;-37
2021/04/08 05:16:31;;;;;;;5.10;4.28;;;14.60;45.20;;;;;;4350566;32;20074;-37
2021/04/08 05:18:58;;;;;;;3.22;2.17;;;14.70;44.30;;;;;;4350704;33;20118;-38
2021/04/08 05:21:24;;;;;;;5.87;4.90;;;14.80;44.10;;;;;;4350566;33;20052;-38
2021/04/08 05:23:50;;;;;;;6.10;4.07;;;14.90;43.60;;;;;;4325339;33;20081;-36
2021/04/08 05:26:17;;;;;;;5.15;2.97;;;14.90;43.30;;;;;;4350167;33;20129;-38
2021/04/08 05:28:43;;;;;;;4.18;1.90;;;14.90;43.50;;;;;;4352526;33;20047;-38
2021/04/08 05:31:10;;;;;;;4.30;2.87;;;15.00;43.40;;;;;;4353936;32;20146;-36
2021/04/08 05:33:36;;;;;;;3.90;2.85;;;15.00;43.10;;;;;;4353254;33;20131;-37
2021/04/08 05:36:04;;;;;;;4.90;3.45;;;15.00;43.30;;;;;;4351095;33;20076;-37
2021/04/08 05:38:30;;;;;;;3.87;2.28;;;15.10;43.40;;;;;;4351187;33;20082;-38
2021/04/08 05:40:56;;;;;;;6.47;3.25;;;15.20;43.50;;;;;;4352354;33;20136;-37
2021/04/08 05:43:23;;;;;;;6.75;4.15;;;15.20;43.30;;;;;;4355131;32;20155;-38
2021/04/08 05:45:49;;;;;;;6.53;3.92;;;15.40;43.30;;;;;;4353820;33;20153;-38
2021/04/08 05:48:16;;;;;;;4.70;3.40;;;15.50;43.20;;;;;;4354112;32;20082;-37
2021/04/08 05:50:42;;;;;;;4.43;2.97;;;15.60;43.10;;;;;;4356435;32;20086;-39
2021/04/08 05:53:09;;;;;;;7.40;3.75;;;15.80;42.90;;;;;;4357235;33;20062;-39
2021/04/08 05:55:35;;;;;;;8.25;3.78;;;16.10;42.30;;;;;;4358752;33;20071;-39
2021/04/08 05:58:02;;;;;;;7.18;4.05;;;16.40;42.10;;;;;;4357062;33;20055;-39
2021/04/08 06:00:28;;;;;;;10.38;3.50;;;16.80;42.30;;;;;;4358265;32;20077;-38
2021/04/08 06:02:57;;;;;;;5.50;2.25;;;17.10;40.80;;;;;;4359168;33;20062;-39
2021/04/08 06:05:24;;;;;;;4.55;2.58;;;17.40;40.00;;;;;;4360066;32;20168;-39
2021/04/08 06:07:50;;;;;;;15.60;3.58;;;17.70;39.20;;;;;;4360168;33;20083;-39
2021/04/08 06:10:17;;;;;;;4.55;1.90;;;18.00;38.30;;;;;;4358028;33;20054;-39
2021/04/08 06:12:44;;;;;;;4.95;2.05;;;18.30;38.00;;;;;;4335090;33;20066;-38
2021/04/08 06:15:11;;;;;;;14.82;3.00;;;18.50;37.60;;;;;;4358884;33;20093;-39
2021/04/08 06:17:38;;;;;;;13.57;3.55;;;18.80;37.00;;;;;;4357043;32;20171;-38
2021/04/08 06:20:06;;;;;;;13.05;3.20;;;19.00;36.60;;;;;;4358359;32;20055;-40
2021/04/08 06:22:33;;;;;;;7.28;1.98;;;19.10;36.00;;;;;;4359573;33;20055;-39
2021/04/08 06:24:59;;;;;;;16.50;3.58;;;19.10;35.80;;;;;;4354995;33;20065;-39
2021/04/08 06:27:28;;;;;;;4.32;3.17;;;19.10;35.70;;;;;;4356393;33;20067;-40
2021/04/08 06:29:55;;;;;;;5.78;2.03;;;19.20;35.30;;;;;;4356565;32;20075;-39
2021/04/08 06:32:22;;;;;;;4.70;1.52;;;19.20;35.50;;;;;;4354348;33;20139;-40
2021/04/08 06:34:48;;;;;;;23.27;4.15;;;19.10;35.50;;;;;;4342319;33;20141;-39
2021/04/08 06:37:15;;;;;;;11.77;2.83;;;19.10;35.90;;;;;;4352985;33;20071;-39
2021/04/08 06:39:41;;;;;;;3.62;2.50;;;19.10;36.00;;;;;;4353372;32;20086;-39
2021/04/08 06:42:08;;;;;;;12.80;2.83;;;19.20;35.80;;;;;;4350009;33;20066;-39
2021/04/08 06:44:36;;;;;;;3.50;1.70;;;19.30;35.50;;;;;;4347985;32;20071;-40
2021/04/08 06:47:04;;;;;;;2.58;1.85;;;19.30;35.50;;;;;;4347569;32;20168;-39
2021/04/08 06:49:34;;;;;;;8.40;2.70;;;19.50;35.60;;;;;;4314417;33;20092;-38
2021/04/08 06:52:01;;;;;;;6.40;2.15;;;19.60;35.70;;;;;;4315093;33;20087;-39
2021/04/08 06:54:28;;;;;;;57.40;6.85;;;19.70;35.00;;;;;;4290912;33;20091;-39
2021/04/08 06:56:54;;;;;;;11.38;2.95;;;19.90;35.10;;;;;;4301544;33;20154;-39
2021/04/08 06:59:21;;;;;;;16.40;4.37;;;19.90;34.50;;;;;;4312451;33;20087;-39
2021/04/08 07:01:48;;;;;;;7.43;1.70;;;20.00;34.40;;;;;;4313144;33;20467;-37
2021/04/08 07:04:15;;;;;;;16.70;2.72;;;19.80;34.20;;;;;;4313393;33;20075;-38
2021/04/08 07:06:41;;;;;;;14.50;2.60;;;19.80;34.40;;;;;;4313355;33;20098;-35
2021/04/08 07:09:10;;;;;;;8.18;2.53;;;19.60;34.70;;;;;;4298132;33;20166;-36
2021/04/08 07:11:39;;;;;;;4.53;2.60;;;19.50;34.90;;;;;;4286020;33;20071;-36
2021/04/08 07:14:07;;;;;;;13.68;3.85;;;19.50;34.90;;;;;;4298531;33;20076;-36
2021/04/08 07:16:34;;;;;;;4.65;1.73;;;19.50;35.00;;;;;;4299135;33;20079;-36
2021/04/08 07:19:01;;;;;;;11.40;2.75;;;19.50;35.10;;;;;;4286589;33;20151;-36
2021/04/08 07:21:32;;;;;;;10.80;2.53;;;19.50;35.00;;;;;;4338082;33;20144;-35
2021/04/08 07:24:19;;;;;;;11.63;2.75;;;19.50;35.20;;;;;;4342763;33;20063;-37
2021/04/08 07:26:52;;;;;;;4.95;2.42;;;19.60;35.10;;;;;;4342994;33;20148;-36
2021/04/08 07:29:20;;;;;;;14.93;3.37;;;19.60;35.00;;;;;;4342902;33;20492;-36
2021/04/08 07:31:47;;;;;;;10.63;4.03;;;19.70;34.80;;;;;;4342956;33;20157;-36
2021/04/08 07:34:32;;;;;;;13.48;3.80;;;19.70;34.50;;;;;;4330379;33;20059;-36
2021/04/08 07:36:58;;;;;;;15.73;4.18;;;19.60;34.60;;;;;;4332986;32;20181;-35
2021/04/08 07:39:25;;;;;;;7.15;2.40;;;19.50;34.60;;;;;;4319738;33;20139;-36
2021/04/08 07:42:00;;;;;;;19.85;2.80;;;19.40;34.60;;;;;;4345612;32;20581;-35
2021/04/08 07:44:27;;;;;;;7.60;2.33;;;19.30;34.50;;;;;;4344930;32;20063;-36
2021/04/08 07:46:54;;;;;;;12.75;3.50;;;19.20;34.50;;;;;;4344915;32;20134;-36
2021/04/08 07:49:32;;;;;;;6.40;3.50;;;19.10;34.50;;;;;;4331260;33;20519;-37
2021/04/08 07:52:41;;;;;;;18.85;4.00;;;18.90;34.80;;;;;;4346421;32;20086;-36
2021/04/08 07:55:21;;;;;;;13.25;3.37;;;18.80;35.00;;;;;;4300583;33;20075;-35
2021/04/08 07:58:13;;;;;;;2.87;1.37;;;18.80;35.50;;;;;;4301012;33;20068;-36
2021/04/08 08:01:05;;;;;;;3.35;2.65;;;18.80;35.50;;;;;;4276854;33;20075;-36
2021/04/08 08:03:33;;;;;;;25.08;5.43;;;19.00;35.50;;;;;;4284751;33;20087;-36
2021/04/08 08:06:01;;;;;;;3.33;2.20;;;19.20;35.40;;;;;;4299608;33;20067;-36
2021/04/08 08:08:43;;;;;;;15.55;3.47;;;19.20;35.10;;;;;;4299631;33;20151;-36
2021/04/08 08:11:14;;;;;;;16.17;4.07;;;19.30;35.10;;;;;;4300110;33;20226;-37
2021/04/08 08:13:54;;;;;;;11.52;3.90;;;19.20;34.90;;;;;;4298637;33;20172;-36
2021/04/08 08:16:27;;;;;;;4.10;2.10;;;19.20;34.80;;;;;;4287104;33;20141;-35
2021/04/08 08:18:57;;;;;;;14.85;4.53;;;19.20;34.80;;;;;;4287244;33;20068;-36
2021/04/08 08:21:36;;;;;;;14.25;3.25;;;19.10;34.90;;;;;;4275402;33;20064;-35
2021/04/08 08:24:13;;;;;;;16.10;4.47;;;18.90;35.30;;;;;;4299127;33;20083;-37
2021/04/08 08:26:45;;;;;;;12.30;4.40;;;18.80;35.50;;;;;;4255270;33;20060;-38
2021/04/08 08:29:12;;;;;;;6.55;4.30;;;18.70;35.70;;;;;;4277843;33;20166;-36
2021/04/08 08:31:39;;;;;;;18.27;4.87;;;18.70;35.70;;;;;;4314511;33;20255;-37
2021/04/08 08:34:09;;;;;;;14.73;4.97;;;18.60;36.00;;;;;;4314184;33;20060;-36
2021/04/08 08:36:41;;;;;;;13.93;4.37;;;18.60;36.20;;;;;;4327734;33;20654;-37
2021/04/08 08:39:12;;;;;;;11.63;4.37;;;18.60;36.10;;;;;;4328929;33;20521;-36
2021/04/08 08:41:39;;;;;;;11.48;4.62;;;18.60;36.30;;;;;;4329291;33;20165;-36
2021/04/08 08:44:09;;;;;;;18.08;4.78;;;18.50;36.40;;;;;;4316806;33;20107;-37
2021/04/08 08:47:21;;;;;;;33.35;6.43;;;18.50;36.50;;;;;;4315960;33;20165;-37
2021/04/08 08:50:11;;;;;;;13.38;3.53;;;18.40;36.70;;;;;;4318471;33;20080;-38
2021/04/08 08:52:40;;;;;;;22.67;3.45;;;18.40;36.60;;;;;;4329646;33;20072;-39
2021/04/08 08:55:18;;;;;;;15.45;3.83;;;18.30;36.90;;;;;;4315768;33;20071;-38
2021/04/08 08:57:50;;;;;;;13.20;4.80;;;18.30;37.10;;;;;;4345237;32;20063;-39
2021/04/08 09:00:17;;;;;;;6.93;3.22;;;18.30;37.40;;;;;;4359779;32;20073;-38
2021/04/08 09:02:45;;;;;;;11.45;4.47;;;18.40;37.30;;;;;;4359780;32;20070;-39
2021/04/08 09:05:21;;;;;;;15.48;4.03;;;18.50;37.40;;;;;;4361680;32;20063;-39
2021/04/08 09:07:49;;;;;;;7.20;3.05;;;18.60;37.20;;;;;;4364860;32;20145;-40
2021/04/08 09:10:29;;;;;;;12.73;4.20;;;18.70;36.90;;;;;;4366272;32;20573;-40
2021/04/08 09:12:56;;;;;;;11.45;4.40;;;18.80;37.10;;;;;;4369005;32;20167;-39
2021/04/08 09:15:23;;;;;;;14.40;3.95;;;18.90;37.10;;;;;;4370244;32;20071;-41
2021/04/08 09:17:57;;;;;;;7.45;3.25;;;19.00;37.50;;;;;;4369710;32;20046;-40
2021/04/08 09:20:24;;;;;;;22.02;4.00;;;19.20;37.40;;;;;;4370572;32;20055;-41
2021/04/08 09:23:11;;;;;;;7.37;3.22;;;19.40;37.10;;;;;;4370208;32;20066;-41
2021/04/08 09:25:49;;;;;;;14.93;5.40;;;19.70;36.70;;;;;;4368894;32;20062;-40
2021/04/08 09:28:16;;;;;;;19.85;3.65;;;19.90;36.60;;;;;;4371786;32;20062;-40
2021/04/08 09:31:06;;;;;;;25.00;3.65;;;20.10;36.30;;;;;;4373589;32;20073;-40
2021/04/08 09:33:48;;;;;;;13.68;4.12;;;20.30;36.10;;;;;;4375094;32;20067;-40
2021/04/08 09:36:21;;;;;;;18.33;3.92;;;20.50;35.80;;;;;;4367327;32;20462;-40
2021/04/08 09:39:11;;;;;;;13.88;3.87;;;20.70;35.50;;;;;;4358901;32;20062;-38
2021/04/08 09:41:58;;;;;;;23.38;4.62;;;20.80;35.20;;;;;;4347743;32;20116;-42
2021/04/08 09:44:27;;;;;;;6.97;2.87;;;20.90;35.10;;;;;;4358818;32;20062;-40
2021/04/08 09:46:59;;;;;;;20.83;4.32;;;21.00;35.10;;;;;;4358938;32;20070;-40
2021/04/08 09:49:41;;;;;;;16.92;4.15;;;21.10;35.10;;;;;;4357582;32;20244;-39
2021/04/08 09:52:09;;;;;;;13.43;3.35;;;21.20;35.30;;;;;;4359029;32;20054;-42
2021/04/08 09:55:00;;;;;;;23.73;5.03;;;21.30;35.80;;;;;;4358477;32;20074;-41
2021/04/08 09:57:40;;;;;;;20.67;3.37;;;21.40;35.00;;;;;;4358248;32;20074;-38
2021/04/08 10:00:12;;;;;;;14.50;3.35;;;21.60;35.00;;;;;;4358746;32;20066;-39
2021/04/08 10:02:58;;;;;;;5.12;2.03;;;21.70;34.70;;;;;;4358747;32;20181;-40
2021/04/08 10:05:40;;;;;;;6.70;2.55;;;21.80;34.50;;;;;;4346622;32;20071;-38
2021/04/08 10:08:08;;;;;;;17.77;4.10;;;21.80;34.30;;;;;;4358894;32;20078;-39
2021/04/08 10:10:39;;;;;;;10.35;2.10;;;21.80;33.90;;;;;;4357441;32;20065;-40
2021/04/08 10:13:21;;;;;;;10.30;3.22;;;21.80;34.00;;;;;;4356847;32;20074;-40
2021/04/08 10:15:49;;;;;;;16.40;3.03;;;21.80;34.60;;;;;;4357570;32;20069;-39
2021/04/08 10:18:25;;;;;;;8.65;3.30;;;21.80;34.70;;;;;;4357187;32;20077;-37
2021/04/08 10:20:54;;;;;;;14.20;3.37;;;22.00;34.60;;;;;;4356580;32;20595;-38
2021/04/08 10:23:31;;;;;;;9.23;2.50;;;22.10;34.50;;;;;;4358889;32;20081;-37
2021/04/08 10:26:04;;;;;;;22.30;5.18;;;22.20;34.40;;;;;;4359182;32;20059;-39
2021/04/08 10:28:59;;;;;;;26.40;3.97;;;22.30;34.20;;;;;;4358694;32;20062;-39
2021/04/08 10:31:34;;;;;;;14.57;3.35;;;22.40;34.30;;;;;;4356785;32;20070;-39
2021/04/08 10:34:20;;;;;;;18.92;3.30;;;22.70;34.10;;;;;;4358610;32;20098;-39
2021/04/08 10:36:52;;;;;;;18.52;3.47;;;22.80;33.70;;;;;;4343980;32;20058;-38
2021/04/08 10:39:29;;;;;;;17.80;2.90;;;23.00;33.40;;;;;;4344005;32;20183;-41
2021/04/08 10:42:11;;;;;;;28.60;3.12;;;23.20;33.10;;;;;;4343531;32;20066;-39
2021/04/08 10:44:51;;;;;;;23.10;3.47;;;23.30;32.60;;;;;;4344085;32;20530;-41
2021/04/08 10:47:27;;;;;;;16.02;3.20;;;23.30;33.30;;;;;;4344658;32;20070;-41
2021/04/08 10:49:57;;;;;;;19.98;4.12;;;23.30;32.60;;;;;;4329972;33;20085;-40
2021/04/08 10:52:30;;;;;;;14.52;2.75;;;23.20;32.50;;;;;;4343751;32;20121;-39
2021/04/08 10:54:59;;;;;;;17.17;4.05;;;23.10;32.80;;;;;;4343688;32;20094;-41
2021/04/08 10:57:26;;;;;;;10.95;2.75;;;23.10;32.70;;;;;;4330006;33;20466;-41
2021/04/08 10:59:53;;;;;;;11.05;2.35;;;23.00;32.70;;;;;;4342713;33;20617;-40
2021/04/08 11:02:31;;;;;;;17.58;4.87;;;22.80;32.60;;;;;;4344180;32;20067;-41
2021/04/08 11:05:05;;;;;;;9.00;2.50;;;22.60;33.10;;;;;;4344128;32;20055;-40
2021/04/08 11:07:40;;;;;;;28.15;4.53;;;22.50;33.10;;;;;;4342702;33;20139;-40
2021/04/08 11:10:14;;;;;;;;;;;22.30;33.40;;;;;;4344100;33;20460;-41
2021/04/08 11:12:41;;;;;;;4.68;3.00;;;22.10;33.70;;;;;;4343257;32;20032;-40
2021/04/08 11:15:10;;;;;;;12.43;1.77;;;22.00;34.00;;;;;;4341769;33;20122;-40
2021/04/08 11:17:49;;;;;;;7.20;3.37;;;21.80;34.50;;;;;;4342564;33;20517;-40
2021/04/08 11:20:17;;;;;;;11.00;2.95;;;21.70;34.60;;;;;;4344002;32;20061;-40
2021/04/08 11:22:46;;;;;;;12.52;3.90;;;21.70;34.90;;;;;;4342365;33;20176;-38
2021/04/08 11:25:14;;;;;;;10.45;3.20;;;21.60;35.00;;;;;;4342267;33;20083;-40
2021/04/08 11:27:45;;;;;;;10.63;3.10;;;21.60;35.00;;;;;;4344991;33;20074;-39
2021/04/08 11:30:21;;;;;;;21.08;3.55;;;21.50;35.30;;;;;;4346942;33;20143;-39
2021/04/08 11:32:52;;;;;;;13.40;3.83;;;21.50;35.40;;;;;;4346853;32;20063;-38
2021/04/08 11:35:39;;;;;;;14.05;4.22;;;21.30;35.30;;;;;;4351689;32;20062;-38
2021/04/08 11:38:20;;;;;;;19.40;3.50;;;21.10;36.40;;;;;;4360908;32;20067;-38
2021/04/08 11:41:08;;;;;;;5.90;2.95;;;21.10;36.10;;;;;;4360906;32;20462;-39
2021/04/08 11:43:46;;;;;;;15.88;3.60;;;21.00;36.30;;;;;;4359520;32;20598;-40
2021/04/08 11:46:35;;;;;;;12.37;3.95;;;20.90;36.60;;;;;;4361025;32;20161;-40
2021/04/08 11:49:02;;;;;;;20.40;3.62;;;20.80;37.00;;;;;;4360859;32;20542;-37
2021/04/08 11:51:30;;;;;;;12.65;3.47;;;20.80;37.40;;;;;;4359650;32;20167;-39
2021/04/08 11:54:11;;;;;;;21.75;4.32;;;20.90;37.30;;;;;;4361384;32;20070;-39
2021/04/08 11:56:42;;;;;;;14.80;3.53;;;21.10;37.30;;;;;;4360554;32;20118;-40
2021/04/08 11:59:17;;;;;;;25.08;3.40;;;21.20;37.00;;;;;;4361118;32;20070;-40
2021/04/08 12:01:45;;;;;;;;;;;21.30;36.90;;;;;;4360787;32;20089;-39
2021/04/08 12:04:23;;;;;;;15.77;3.45;;;21.50;36.80;;;;;;4360826;32;20025;-40
2021/04/08 12:06:58;;;;;;;15.55;2.92;;;21.60;36.80;;;;;;4358987;32;20470;-39
2021/04/08 12:09:38;;;;;;;15.57;3.10;;;21.70;36.90;;;;;;4360875;32;20610;-40
2021/04/08 12:12:06;;;;;;;13.45;3.53;;;21.70;36.90;;;;;;4360902;32;20515;-40
2021/04/08 12:14:54;;;;;;;14.32;4.50;;;21.70;36.90;;;;;;4360761;32;20073;-38
2021/04/08 12:17:23;;;;;;;17.02;3.83;;;21.80;36.90;;;;;;4349181;32;20066;-38
2021/04/08 12:19:50;;;;;;;17.83;3.78;;;21.90;37.00;;;;;;4361930;32;20083;-39
2021/04/08 12:22:16;;;;;;;4.90;2.28;;;22.00;36.80;;;;;;4360253;32;20512;-39
2021/04/08 12:25:12;;;;;;;16.08;3.92;;;22.10;36.50;;;;;;4361219;32;20513;-39
2021/04/08 12:27:39;;;;;;;13.45;3.97;;;22.20;36.30;;;;;;4360262;32;20067;-40
2021/04/08 12:30:08;;;;;;;12.82;2.53;;;22.30;36.10;;;;;;4360518;32;20077;-38
2021/04/08 12:32:34;;;;;;;23.67;4.25;;;22.40;35.90;;;;;;4360126;32;20081;-40
2021/04/08 12:35:01;;;;;;;15.50;3.37;;;22.40;35.80;;;;;;4356140;32;20087;-38
2021/04/08 12:37:28;;;;;;;11.70;3.03;;;22.50;35.70;;;;;;4344876;32;20070;-37
2021/04/08 12:39:54;;;;;;;31.73;5.37;;;22.60;35.70;;;;;;4345536;33;20066;-40
2021/04/08 12:42:22;;;;;;;9.80;2.70;;;22.50;35.70;;;;;;4345164;33;20535;-40
2021/04/08 12:44:48;;;;;;;14.18;2.17;;;22.50;35.80;;;;;;4343926;33;20098;-40
2021/04/08 12:47:15;;;;;;;11.20;2.80;;;22.40;35.70;;;;;;4344933;33;20070;-38
2021/04/08 12:49:41;;;;;;;4.75;2.12;;;22.40;35.80;;;;;;4345287;33;20063;-38
2021/04/08 12:52:08;;;;;;;7.35;3.10;;;22.40;36.00;;;;;;4343498;33;20087;-38
2021/04/08 12:54:35;;;;;;;10.63;3.25;;;22.40;36.10;;;;;;4345532;33;20078;-38
2021/04/08 12:57:01;;;;;;;24.58;3.30;;;22.40;36.00;;;;;;4344986;33;20164;-38
2021/04/08 12:59:28;;;;;;;24.65;3.30;;;22.50;36.10;;;;;;4343541;33;20086;-39
2021/04/08 13:01:55;;;;;;;11.05;2.55;;;22.50;36.10;;;;;;4318554;33;20071;-41